Time;durP1;ratioP1;P1;durP2;ratioP2;P2;SDS_P1;SDS_P2;PMS_P1;PMS_P2;Temp;Humidity;BMP_temperature;BMP_pressure;BME280_temperature;BME280_humidity;BME280_pressure;Samples;Min_cycle;Max_cycle;Signal;HPM_P1;HPM_P2
2022/02/20 00:00:47;;;;;;;;;;;4.30;65.80;;;2.67;63.69;95994.34;5009513;28;19921;-67
2022/02/20 00:03:13;;;;;;;;;;;4.20;65.80;;;2.69;64.39;95982.03;5009016;28;20285;-67
2022/02/20 00:05:38;;;;;;;;;;;4.30;65.60;;;2.70;63.22;95994.06;5011363;28;20365;-68
2022/02/20 00:08:04;;;;;;;;;;;4.30;65.10;;;2.72;63.85;95997.34;5010437;28;19922;-68
2022/02/20 00:10:30;;;;;;;;;;;4.30;65.20;;;2.73;63.66;95991.19;5003758;28;19994;-67
2022/02/20 00:12:57;;;;;;;;;;;4.30;65.00;;;2.75;64.04;95987.50;5012419;28;19925;-67
2022/02/20 00:15:23;;;;;;;;;;;4.40;64.80;;;2.78;63.13;95989.00;5012347;28;19953;-67
2022/02/20 00:17:50;;;;;;;;;;;4.40;64.50;;;2.80;63.29;95974.06;5012950;28;19922;-67
2022/02/20 00:20:17;;;;;;;;;;;4.30;64.40;;;2.83;63.67;95981.56;5011098;28;19922;-67
2022/02/20 00:22:43;;;;;;;;;;;4.40;64.30;;;2.83;62.09;95968.59;5009197;28;20368;-67
2022/02/20 00:25:09;;;;;;;;;;;4.50;63.70;;;2.86;62.57;95983.88;5023761;28;19957;-67
2022/02/20 00:27:35;;;;;;;;;;;4.50;63.50;;;2.88;62.32;95981.97;4977036;28;19938;-67
2022/02/20 00:30:00;;;;;;;;;;;4.50;63.20;;;2.90;62.27;95982.63;5008043;28;19921;-67
2022/02/20 00:32:26;;;;;;;;;;;4.50;63.10;;;2.91;61.21;95976.47;5003880;28;19933;-67
2022/02/20 00:34:52;;;;;;;;;;;4.50;62.90;;;2.92;62.24;95978.09;4991874;28;19943;-67
2022/02/20 00:37:17;;;;;;;;;;;4.60;62.80;;;2.94;61.84;95973.59;5009365;28;20103;-67
2022/02/20 00:39:43;;;;;;;;;;;4.50;62.60;;;2.95;61.84;95982.22;5009186;28;20404;-67
2022/02/20 00:42:09;;;;;;;;;;;4.50;62.50;;;2.97;61.33;95975.09;5012882;28;19982;-67
2022/02/20 00:44:34;;;;;;;;;;;4.60;62.50;;;3.00;61.74;95986.00;5007484;28;19931;-67
2022/02/20 00:47:00;;;;;;;;;;;4.60;61.90;;;3.02;61.55;95989.28;5006202;28;19922;-67
2022/02/20 00:49:26;;;;;;;;;;;4.60;62.10;;;3.03;60.91;95985.72;5015289;28;20006;-67
2022/02/20 00:51:52;;;;;;;;;;;4.70;61.90;;;3.05;61.20;95999.38;5006825;28;20008;-67
2022/02/20 00:54:17;;;;;;;;;;;4.60;61.90;;;3.07;61.24;95989.66;5010113;28;19928;-67
2022/02/20 00:56:43;;;;;;;;;;;4.70;61.80;;;3.10;61.12;96001.53;5007551;28;19922;-66
2022/02/20 00:59:09;;;;;;;;;;;4.80;61.50;;;3.12;60.97;95999.59;4992683;28;20007;-67
2022/02/20 01:01:34;;;;;;;;;;;4.80;61.60;;;3.12;61.66;96006.59;4995753;28;20428;-67
2022/02/20 01:04:00;;;;;;;;;;;4.70;61.80;;;3.12;61.77;96006.59;5007988;28;19922;-67
2022/02/20 01:06:26;;;;;;;;;;;4.80;62.00;;;3.16;60.19;96020.91;5019585;28;20515;-67
2022/02/20 01:08:52;;;;;;;;;;;4.80;61.90;;;3.15;61.62;96029.69;5006306;28;19925;-67
2022/02/20 01:11:17;;;;;;;;;;;4.80;61.90;;;3.15;61.93;96030.50;4988307;28;19933;-67
2022/02/20 01:13:44;;;;;;;;;;;4.80;62.10;;;3.17;61.82;96033.78;5002457;28;19940;-67
2022/02/20 01:16:09;;;;;;;;;;;4.90;62.10;;;3.17;61.66;96033.78;5008569;28;19928;-67
2022/02/20 01:18:35;;;;;;;;;;;4.90;61.90;;;3.18;61.82;96045.00;5016676;28;19922;-67
2022/02/20 01:21:01;;;;;;;;;;;4.80;62.10;;;3.18;61.93;96056.22;5012234;28;19922;-67
2022/02/20 01:23:26;;;;;;;;;;;4.90;62.00;;;3.18;61.39;96045.00;5007629;28;19925;-67
2022/02/20 01:25:52;;;;;;;;;;;4.80;62.20;;;3.20;61.24;96050.88;4993352;28;19925;-67
2022/02/20 01:28:18;;;;;;;;;;;4.90;62.10;;;3.21;62.01;96052.50;5009689;28;20391;-67
2022/02/20 01:30:43;;;;;;;;;;;4.90;61.90;;;3.21;61.58;96042.13;5000158;28;19926;-67
2022/02/20 01:33:09;;;;;;;;;;;4.90;61.70;;;3.20;60.85;96043.09;5012275;28;19928;-67
2022/02/20 01:35:35;;;;;;;;;;;4.80;61.40;;;3.21;61.09;96039.53;4994607;28;19967;-68
2022/02/20 01:38:00;;;;;;;;;;;4.90;61.20;;;3.23;61.19;96040.19;5013684;28;19927;-67
2022/02/20 01:40:30;;;;;;;;;;;4.80;61.60;;;3.24;60.70;96049.63;4998839;28;19972;-67
2022/02/20 01:42:58;;;;;;;;;;;4.90;60.80;;;3.24;60.84;96044.44;5009058;28;19925;-68
2022/02/20 01:45:24;;;;;;;;;;;4.80;60.60;;;3.26;60.29;96043.31;5022716;28;19921;-68
2022/02/20 01:47:50;;;;;;;;;;;4.90;60.60;;;3.29;60.29;96050.00;5013297;28;20392;-68
2022/02/20 01:50:16;;;;;;;;;;;4.90;60.40;;;3.31;59.60;96040.28;4995877;28;19924;-67
2022/02/20 01:52:42;;;;;;;;;;;4.90;59.60;;;3.32;59.75;96036.72;4992785;28;19929;-67
2022/02/20 01:55:08;;;;;;;;;;;4.90;59.70;;;3.35;58.03;96031.22;5008519;28;19922;-67
2022/02/20 01:57:37;;;;;;;;;;;5.00;58.70;;;3.37;58.97;96039.69;5019509;28;19961;-68
2022/02/20 02:00:04;;;;;;;;;;;5.00;58.70;;;3.41;58.51;96033.25;5009058;28;19937;-67
2022/02/20 02:02:31;;;;;;;;;;;5.00;58.30;;;3.42;58.85;96021.88;5009406;28;19928;-68
2022/02/20 02:04:57;;;;;;;;;;;5.00;58.30;;;3.44;57.74;96025.16;5007159;28;19931;-68
2022/02/20 02:07:22;;;;;;;;;;;5.00;58.10;;;3.47;58.58;96009.25;4993946;28;20305;-67
2022/02/20 02:09:48;;;;;;;;;;;5.00;58.60;;;3.49;59.55;96007.31;5007932;28;21390;-67
2022/02/20 02:12:14;;;;;;;;;;;5.00;59.50;;;3.49;59.99;96007.31;5010322;28;19933;-68
2022/02/20 02:14:53;;;;;;;;;;;5.00;60.00;;;3.49;60.63;96009.91;5008030;28;19921;-67
2022/02/20 02:17:19;;;;;;;;;;;5.00;60.20;;;3.51;59.63;96009.78;5006291;28;19941;-67
2022/02/20 02:19:44;;;;;;;;;;;5.00;60.10;;;3.50;60.15;96021.97;4990893;28;20304;-67
2022/02/20 02:22:10;;;;;;;;;;;5.00;60.00;;;3.49;60.69;96017.72;4996505;28;19975;-67
2022/02/20 02:24:36;;;;;;;;;;;5.00;60.70;;;3.47;60.23;96027.47;5000399;28;19921;-67
2022/02/20 02:27:02;;;;;;;;;;;4.90;61.20;;;3.42;62.87;96032.28;5008120;28;19921;-68
2022/02/20 02:29:28;;;;;;;;;;;4.80;64.20;;;3.37;64.26;96032.69;5006313;28;19982;-68
2022/02/20 02:31:54;;;;;;;;;;;4.80;66.00;;;3.28;64.16;96027.56;5009247;28;20385;-67
2022/02/20 02:34:20;;;;;;;;;;;4.60;67.80;;;3.18;66.36;96032.84;4981803;28;19917;-68
2022/02/20 02:36:47;;;;;;;;;;;4.40;69.00;;;3.12;67.08;96029.97;4991782;28;19926;-67
2022/02/20 02:39:12;;;;;;;;;;;4.40;70.00;;;3.05;68.82;96033.16;4992440;28;19921;-67
2022/02/20 02:41:38;;;;;;;;;;;4.40;70.70;;;2.98;68.21;96055.50;5007780;28;19933;-68
2022/02/20 02:44:04;;;;;;;;;;;4.30;70.70;;;2.90;67.14;96029.38;5012143;28;19927;-67
2022/02/20 02:46:32;;;;;;;;;;;4.20;71.70;;;2.85;70.01;96042.00;5007139;28;20372;-68
2022/02/20 02:48:57;;;;;;;;;;;4.20;72.50;;;2.78;70.25;96038.34;4990624;28;19921;-67
2022/02/20 02:51:23;;;;;;;;;;;4.10;73.00;;;2.70;70.73;96031.22;5017813;28;19925;-67
2022/02/20 02:53:49;;;;;;;;;;;4.10;73.20;;;2.65;71.33;96053.41;4991327;28;19926;-67
2022/02/20 02:56:14;;;;;;;;;;;3.90;74.10;;;2.55;71.32;96039.63;5007966;28;20338;-67
2022/02/20 02:58:42;;;;;;;;;;;3.80;74.50;;;2.53;71.40;96054.53;5002974;28;19925;-68
2022/02/20 03:01:07;;;;;;;;;;;3.90;75.00;;;2.46;71.37;96059.47;5007363;28;19963;-67
2022/02/20 03:03:33;;;;;;;;;;;3.80;75.80;;;2.40;73.99;96066.03;5009186;28;19929;-68
2022/02/20 03:05:59;;;;;;;;;;;3.70;76.20;;;2.36;74.71;96063.84;4990721;28;19921;-67
2022/02/20 03:08:25;;;;;;;;;;;3.70;76.20;;;2.31;73.78;96056.50;5009720;28;20599;-67
2022/02/20 03:10:51;;;;;;;;;;;3.70;76.40;;;2.27;73.80;96065.53;5007721;28;20005;-67
2022/02/20 03:13:17;;;;;;;;;;;3.70;76.60;;;2.23;74.61;96061.53;4974475;28;20560;-67
2022/02/20 03:15:43;;;;;;;;;;;3.60;77.30;;;2.21;75.17;96066.06;4985863;28;19917;-68
2022/02/20 03:18:08;;;;;;;;;;;3.60;77.50;;;2.17;74.76;96064.69;5006458;28;19921;-67
2022/02/20 03:20:34;;;;;;;;;;;3.60;77.90;;;2.12;75.97;96051.31;5004281;28;20063;-67
2022/02/20 03:23:00;;;;;;;;;;;3.50;78.10;;;2.07;76.52;96059.53;5006130;28;19965;-67
2022/02/20 03:25:26;;;;;;;;;;;3.50;78.80;;;2.03;76.38;96052.94;5007172;28;19927;-67
2022/02/20 03:27:52;;;;;;;;;;;3.40;79.20;;;1.98;76.44;96054.31;4994845;28;19925;-65
2022/02/20 03:30:17;;;;;;;;;;;3.30;79.50;;;1.92;76.67;96078.22;5007411;28;19971;-67
2022/02/20 03:32:43;;;;;;;;;;;3.30;79.60;;;1.93;77.55;96067.72;5004298;28;19932;-66
2022/02/20 03:35:09;;;;;;;;;;;3.40;79.70;;;1.88;78.31;96074.28;5008848;28;19948;-66
2022/02/20 03:37:34;;;;;;;;;;;3.30;79.80;;;1.86;79.20;96071.81;4990689;28;20344;-65
2022/02/20 03:40:00;;;;;;;;;;;3.20;79.80;;;1.87;77.57;96072.63;5011233;28;19921;-65
2022/02/20 03:42:26;;;;;;;;;;;3.40;79.50;;;1.87;79.27;96049.28;5014997;28;20623;-66
2022/02/20 03:44:51;;;;;;;;;;;3.40;79.60;;;1.88;78.65;96048.34;5006233;28;19921;-66
2022/02/20 03:47:17;;;;;;;;;;;3.40;79.20;;;1.87;77.55;96047.50;4999695;28;19921;-66
2022/02/20 03:49:43;;;;;;;;;;;3.40;79.40;;;1.88;77.71;96043.97;5006579;28;19922;-67
2022/02/20 03:52:08;;;;;;;;;;;3.40;78.70;;;1.90;75.68;96041.22;4984593;28;19925;-66
2022/02/20 03:54:34;;;;;;;;;;;3.40;78.60;;;1.91;77.13;96037.69;4991835;28;20012;-66
2022/02/20 03:56:59;;;;;;;;;;;3.40;78.10;;;1.92;77.39;96047.09;5009046;28;20300;-66
2022/02/20 03:59:25;;;;;;;;;;;3.50;78.10;;;1.94;76.81;96063.34;5008167;28;19929;-66
2022/02/20 04:01:51;;;;;;;;;;;3.50;77.30;;;1.98;76.73;96059.50;5008786;28;19931;-67
2022/02/20 04:04:16;;;;;;;;;;;3.60;76.90;;;1.98;75.48;96044.75;5008292;28;20458;-66
2022/02/20 04:06:42;;;;;;;;;;;3.60;76.50;;;2.01;74.46;96048.84;5010285;28;19935;-66
2022/02/20 04:09:08;;;;;;;;;;;3.60;76.10;;;2.04;75.89;96054.63;4990591;28;19933;-67
2022/02/20 04:11:34;;;;;;;;;;;3.60;75.90;;;2.09;75.67;96056.78;5010061;28;19925;-66
2022/02/20 04:14:00;;;;;;;;;;;3.70;75.60;;;2.12;74.25;96059.94;5008134;28;20289;-66
2022/02/20 04:16:25;;;;;;;;;;;3.70;74.90;;;2.15;73.75;96058.81;5007077;28;19922;-66
2022/02/20 04:18:51;;;;;;;;;;;3.70;74.30;;;2.19;73.81;96057.59;5005252;28;20345;-66
2022/02/20 04:21:17;;;;;;;;;;;3.90;73.70;;;2.22;72.82;96052.13;5007335;28;19921;-67
2022/02/20 04:23:42;;;;;;;;;;;3.90;73.30;;;2.28;73.39;96061.97;5002567;28;19922;-66
2022/02/20 04:26:08;;;;;;;;;;;3.90;72.60;;;2.32;71.35;96058.13;5006515;28;20395;-67
2022/02/20 04:28:34;;;;;;;;;;;4.00;71.80;;;2.36;71.86;96056.06;5028627;28;19979;-66
2022/02/20 04:30:59;;;;;;;;;;;4.10;71.00;;;2.41;71.77;96046.91;5007457;28;19925;-66
2022/02/20 04:33:25;;;;;;;;;;;4.10;70.40;;;2.45;70.98;96048.25;4991959;28;20035;-65
2022/02/20 04:35:51;;;;;;;;;;;4.10;70.20;;;2.49;70.13;96046.22;4993270;28;20416;-67
2022/02/20 04:38:16;;;;;;;;;;;4.10;68.60;;;2.54;69.04;96040.59;5018615;28;19929;-66
2022/02/20 04:40:42;;;;;;;;;;;4.20;68.20;;;2.59;68.63;96039.22;5015582;28;19944;-66
2022/02/20 04:43:08;;;;;;;;;;;4.30;67.30;;;2.65;67.89;96035.22;4995674;28;20019;-67
2022/02/20 04:45:33;;;;;;;;;;;4.40;66.50;;;2.71;68.18;96045.03;5009837;28;19940;-67
2022/02/20 04:47:59;;;;;;;;;;;4.40;66.20;;;2.77;66.43;96049.69;4999589;28;19928;-67
2022/02/20 04:50:25;;;;;;;;;;;4.50;64.60;;;2.82;65.51;96044.88;5013193;28;19952;-67
2022/02/20 04:52:50;;;;;;;;;;;4.50;64.00;;;2.88;65.19;96041.69;5011688;28;19941;-67
2022/02/20 04:55:16;;;;;;;;;;;4.60;63.80;;;2.92;64.88;96024.84;5018620;28;20266;-67
2022/02/20 04:57:42;;;;;;;;;;;4.60;62.80;;;3.01;64.56;96033.59;4997313;28;19922;-66
2022/02/20 05:00:09;;;;;;;;;;;4.70;62.20;;;3.05;65.05;96033.16;5018911;28;19921;-67
2022/02/20 05:02:35;;;;;;;;;;;4.80;62.70;;;3.13;64.16;96036.81;5008812;28;19941;-67
2022/02/20 05:05:00;;;;;;;;;;;4.90;62.40;;;3.18;63.35;96039.81;4992318;28;19968;-67
2022/02/20 05:07:26;;;;;;;;;;;4.90;60.70;;;3.22;63.12;96048.94;5009848;28;19925;-66
2022/02/20 05:09:52;;;;;;;;;;;4.90;60.90;;;3.28;63.69;96040.56;5007382;28;19929;-67
2022/02/20 05:12:17;;;;;;;;;;;5.00;61.50;;;3.34;62.38;96046.00;4988007;28;19926;-67
2022/02/20 05:14:43;;;;;;;;;;;5.00;59.80;;;3.39;63.14;96048.16;4989107;28;19928;-67
2022/02/20 05:17:11;;;;;;;;;;;5.00;60.30;;;3.43;61.77;96048.69;5008794;28;20411;-67
2022/02/20 05:19:37;;;;;;;;;;;5.10;59.00;;;3.48;61.65;96049.06;5013644;28;19925;-66
2022/02/20 05:22:03;;;;;;;;;;;5.10;59.20;;;3.50;61.28;96040.16;4991002;28;19921;-67
2022/02/20 05:24:29;;;;;;;;;;;5.10;58.20;;;3.55;61.97;96039.72;5006534;28;19948;-67
2022/02/20 05:26:54;;;;;;;;;;;5.20;59.10;;;3.57;60.99;96049.00;5008084;28;20455;-67
2022/02/20 05:29:20;;;;;;;;;;;5.20;58.30;;;3.62;61.20;96054.59;5025481;28;19922;-67
2022/02/20 05:31:45;;;;;;;;;;;5.30;58.30;;;3.65;60.44;96043.09;4987665;28;19926;-67
2022/02/20 05:34:11;;;;;;;;;;;5.30;57.70;;;3.68;60.75;96059.22;5014149;28;19924;-67
2022/02/20 05:36:37;;;;;;;;;;;5.30;58.00;;;3.71;60.04;96057.28;4991222;28;20397;-66
2022/02/20 05:39:03;;;;;;;;;;;5.30;57.40;;;3.74;60.11;96051.78;5011266;28;19918;-67
2022/02/20 05:41:28;;;;;;;;;;;5.30;57.40;;;3.75;60.32;96051.63;5007348;28;19921;-66
2022/02/20 05:43:54;;;;;;;;;;;5.40;57.60;;;3.78;60.16;96047.91;5023123;28;19928;-67
2022/02/20 05:46:20;;;;;;;;;;;5.40;57.30;;;3.79;60.30;96052.13;5008172;28;20443;-67
2022/02/20 05:48:45;;;;;;;;;;;5.40;57.60;;;3.80;59.82;96041.59;5014542;28;19977;-66
2022/02/20 05:51:11;;;;;;;;;;;5.40;57.10;;;3.80;59.69;96061.59;5010529;28;19929;-66
2022/02/20 05:53:37;;;;;;;;;;;5.30;57.10;;;3.79;59.57;96052.13;5008344;28;20599;-66
2022/02/20 05:56:03;;;;;;;;;;;5.40;57.10;;;3.82;59.66;96064.84;5009934;28;20271;-67
2022/02/20 05:58:28;;;;;;;;;;;5.40;57.00;;;3.83;59.59;96058.69;5011567;28;19981;-66
2022/02/20 06:00:54;;;;;;;;;;;5.40;57.30;;;3.85;59.66;96056.78;5011515;28;19984;-67
2022/02/20 06:03:20;;;;;;;;;;;5.50;56.90;;;3.86;59.94;96079.22;5006308;28;20361;-67
2022/02/20 06:05:45;;;;;;;;;;;5.40;57.40;;;3.86;60.54;96087.84;5010746;28;19934;-67
2022/02/20 06:08:11;;;;;;;;;;;5.50;57.70;;;3.88;59.99;96079.91;5006920;28;19921;-67
2022/02/20 06:10:37;;;;;;;;;;;5.60;57.40;;;3.90;60.44;96077.97;5001154;28;19929;-67
2022/02/20 06:13:03;;;;;;;;;;;5.60;57.70;;;3.91;59.71;96095.22;5007522;28;20385;-66
2022/02/20 06:15:28;;;;;;;;;;;5.50;57.50;;;3.91;59.93;96100.41;5008533;28;19941;-68
2022/02/20 06:17:54;;;;;;;;;;;5.60;57.60;;;3.92;59.85;96102.88;4987022;28;19921;-66
2022/02/20 06:20:20;;;;;;;;;;;5.50;57.70;;;3.95;60.11;96101.75;5008338;28;19927;-67
2022/02/20 06:22:45;;;;;;;;;;;5.60;58.20;;;3.97;60.59;96115.44;4991021;28;20331;-67
2022/02/20 06:25:11;;;;;;;;;;;5.60;58.20;;;3.99;60.24;96111.72;5008649;28;19967;-67
2022/02/20 06:27:37;;;;;;;;;;;5.60;58.10;;;4.00;60.36;96115.13;4989113;28;21629;-67
2022/02/20 06:30:03;;;;;;;;;;;5.60;58.30;;;4.02;60.31;96108.00;5010963;28;19924;-67
2022/02/20 06:32:29;;;;;;;;;;;5.60;58.10;;;4.02;60.54;96108.00;4992910;28;20409;-67
2022/02/20 06:34:54;;;;;;;;;;;5.70;58.40;;;4.04;61.30;96105.22;4991457;28;19967;-66
2022/02/20 06:37:20;;;;;;;;;;;5.70;58.60;;;4.05;61.06;96102.47;5006709;28;19922;-67
2022/02/20 06:39:46;;;;;;;;;;;5.70;58.80;;;4.07;60.65;96100.53;4987382;28;19929;-66
2022/02/20 06:42:14;;;;;;;;;;;5.70;58.90;;;4.09;60.61;96100.44;5009985;28;20410;-67
2022/02/20 06:44:39;;;;;;;;;;;5.70;58.80;;;4.10;61.66;96099.47;5021817;28;19939;-68
2022/02/20 06:47:05;;;;;;;;;;;5.70;59.10;;;4.13;61.73;96110.38;5024464;28;20357;-69
2022/02/20 06:49:31;;;;;;;;;;;5.80;58.80;;;4.16;60.98;96098.84;5001677;28;19925;-68
2022/02/20 06:51:56;;;;;;;;;;;5.80;58.70;;;4.17;61.30;96116.09;4998234;28;19926;-65
2022/02/20 06:54:22;;;;;;;;;;;5.90;59.00;;;4.19;61.12;96104.56;5015837;28;19921;-68
2022/02/20 06:56:48;;;;;;;;;;;5.90;58.70;;;4.23;61.43;96102.47;5009724;28;19936;-66
2022/02/20 06:59:13;;;;;;;;;;;5.90;58.90;;;4.25;61.58;96113.56;5008847;28;19917;-67
2022/02/20 07:01:39;;;;;;;;;;;6.00;58.80;;;4.29;61.81;96120.91;5008752;28;19933;-67
2022/02/20 07:04:05;;;;;;;;;;;6.10;59.00;;;4.34;61.22;96124.88;5009185;28;20290;-67
2022/02/20 07:06:32;;;;;;;;;;;6.10;58.70;;;4.37;61.41;96117.59;5008773;28;19925;-66
2022/02/20 07:08:57;;;;;;;;;;;6.20;58.80;;;4.42;61.54;96130.16;4992476;28;20377;-66
2022/02/20 07:11:23;;;;;;;;;;;6.20;58.80;;;4.45;61.11;96119.44;5009023;28;20008;-67
2022/02/20 07:13:49;;;;;;;;;;;6.20;58.80;;;4.48;60.72;96129.56;5008936;28;20343;-67
2022/02/20 07:16:14;;;;;;;;;;;6.30;58.50;;;4.51;61.29;96137.06;5005493;28;19921;-66
2022/02/20 07:18:40;;;;;;;;;;;6.10;58.60;;;4.53;60.88;96135.16;5003144;28;19925;-66
2022/02/20 07:21:06;;;;;;;;;;;6.20;58.70;;;4.53;62.03;96128.16;5014328;28;20126;-66
2022/02/20 07:23:31;;;;;;;;;;;6.20;59.00;;;4.54;60.91;96140.19;5009459;28;19925;-67
2022/02/20 07:25:57;;;;;;;;;;;6.30;58.90;;;4.56;61.02;96129.63;5017742;28;19921;-67
2022/02/20 07:28:23;;;;;;;;;;;6.20;59.00;;;4.57;61.93;96129.47;5008057;28;19917;-67
2022/02/20 07:30:48;;;;;;;;;;;6.30;59.10;;;4.60;61.49;96133.56;5021138;28;19921;-67
2022/02/20 07:33:16;;;;;;;;;;;6.30;59.00;;;4.63;62.10;96133.25;5011739;28;19979;-67
2022/02/20 07:35:42;;;;;;;;;;;6.50;59.00;;;4.71;61.26;96130.72;5018086;28;19922;-67
2022/02/20 07:38:07;;;;;;;;;;;6.70;58.70;;;4.81;61.89;96131.44;5019005;28;19918;-69
2022/02/20 07:40:34;;;;;;;;;;;6.70;58.00;;;4.91;60.84;96142.56;5023572;28;20297;-68
2022/02/20 07:42:59;;;;;;;;;;;7.10;57.30;;;5.06;61.00;96148.06;5029307;28;20351;-70
2022/02/20 07:45:25;;;;;;;;;;;7.30;56.70;;;5.19;60.85;96155.47;5023016;28;20032;-68
2022/02/20 07:48:03;;;;;;;;;;;7.40;56.20;;;5.30;61.33;96157.81;5016427;28;20569;-71
2022/02/20 07:50:36;;;;;;;;;;;7.40;56.40;;;5.41;60.19;96154.94;5004209;28;19929;-69
2022/02/20 07:53:03;;;;;;;;;;;7.60;56.50;;;5.47;59.94;96175.19;5001331;28;19925;-69
2022/02/20 07:55:28;;;;;;;;;;;7.40;56.50;;;5.50;60.83;96167.06;5003634;28;19921;-70
2022/02/20 07:57:54;;;;;;;;;;;7.50;56.30;;;5.52;60.11;96167.72;5000993;28;19927;-71
2022/02/20 08:00:21;;;;;;;;;;;7.40;56.40;;;5.58;60.54;96175.88;5001953;28;20021;-70
2022/02/20 08:02:47;;;;;;;;;;;7.50;56.40;;;5.65;60.67;96187.31;5010073;28;19930;-69
2022/02/20 08:05:13;;;;;;;;;;;7.60;56.40;;;5.67;60.46;96174.97;4993388;28;19925;-69
2022/02/20 08:07:38;;;;;;;;;;;7.50;56.10;;;5.73;59.81;96182.16;5010319;28;19932;-69
2022/02/20 08:10:04;;;;;;;;;;;7.70;56.00;;;5.82;60.14;96178.59;5017712;28;20031;-67
2022/02/20 08:12:30;;;;;;;;;;;7.90;55.80;;;5.90;60.08;96181.28;5010003;28;19925;-68
2022/02/20 08:14:56;;;;;;;;;;;8.00;55.20;;;6.00;59.63;96192.41;4995063;28;19917;-69
2022/02/20 08:17:22;;;;;;;;;;;8.20;55.00;;;6.13;59.70;96191.97;4994835;28;19922;-67
2022/02/20 08:19:48;;;;;;;;;;;8.60;54.10;;;6.20;59.37;96192.16;4994333;28;19931;-69
2022/02/20 08:22:13;;;;;;;;;;;8.30;53.70;;;6.22;58.75;96179.75;5011004;28;20501;-70
2022/02/20 08:24:39;;;;;;;;;;;8.20;54.30;;;6.25;59.42;96175.00;4975286;28;19932;-73
2022/02/20 08:27:05;;;;;;;;;;;8.20;54.90;;;6.26;59.25;96184.47;4989416;28;19922;-69
2022/02/20 08:29:30;;;;;;;;;;;8.10;55.30;;;6.27;59.39;96182.69;5011385;28;19925;-68
2022/02/20 08:31:57;;;;;;;;;;;8.10;55.90;;;6.32;59.20;96189.06;5010041;28;20035;-68
2022/02/20 08:34:23;;;;;;;;;;;8.30;55.10;;;6.34;59.27;96184.50;5010468;28;19921;-68
2022/02/20 08:36:49;;;;;;;;;;;8.10;54.90;;;6.30;59.10;96187.59;4993172;28;20028;-69
2022/02/20 08:39:14;;;;;;;;;;;8.10;55.70;;;6.29;59.30;96188.56;4999182;28;19921;-68
2022/02/20 08:41:40;;;;;;;;;;;8.10;56.00;;;6.30;59.92;96188.41;4994045;28;19925;-68
2022/02/20 08:44:06;;;;;;;;;;;8.10;56.20;;;6.29;59.91;96191.16;5018029;28;20031;-68
2022/02/20 08:46:31;;;;;;;;;;;8.10;56.20;;;6.28;60.56;96172.06;5010532;28;19937;-68
2022/02/20 08:48:57;;;;;;;;;;;7.90;56.90;;;6.25;60.51;96168.97;5012016;28;19984;-68
2022/02/20 08:51:23;;;;;;;;;;;7.90;57.20;;;6.23;60.00;96183.97;5010333;28;19925;-68
2022/02/20 08:53:48;;;;;;;;;;;7.80;57.20;;;6.22;59.68;96184.97;5010075;28;19941;-68
2022/02/20 08:56:14;;;;;;;;;;;7.90;57.30;;;6.22;61.07;96187.56;5008314;28;19922;-68
2022/02/20 08:58:40;;;;;;;;;;;8.00;57.30;;;6.24;60.10;96177.78;4984497;28;19924;-67
2022/02/20 09:01:05;;;;;;;;;;;8.10;57.40;;;6.28;60.54;96177.28;5003151;28;20269;-67
2022/02/20 09:03:31;;;;;;;;;;;8.20;57.00;;;6.31;60.69;96178.75;5017957;28;19925;-68
2022/02/20 09:05:57;;;;;;;;;;;8.10;56.90;;;6.33;60.31;96163.75;5010774;28;19921;-71
2022/02/20 09:08:22;;;;;;;;;;;8.20;57.00;;;6.36;61.10;96186.97;5009305;28;19927;-66
2022/02/20 09:10:48;;;;;;;;;;;8.20;57.00;;;6.35;60.49;96156.59;4992047;28;19929;-65
2022/02/20 09:13:17;;;;;;;;;;;8.10;57.20;;;6.36;60.45;96166.06;4985703;28;19925;-66
2022/02/20 09:15:43;;;;;;;;;;;8.10;57.30;;;6.32;60.51;96155.09;4977420;28;19956;-64
2022/02/20 09:18:08;;;;;;;;;;;8.00;57.40;;;6.33;61.11;96166.34;5009992;28;20384;-65
2022/02/20 09:20:34;;;;;;;;;;;8.20;57.30;;;6.40;59.86;96177.81;4994020;28;19951;-65
2022/02/20 09:23:00;;;;;;;;;;;8.30;56.50;;;6.47;60.04;96164.91;4994420;28;19921;-67
2022/02/20 09:25:25;;;;;;;;;;;8.60;56.00;;;6.53;59.84;96166.88;5010503;28;20025;-68
2022/02/20 09:27:51;;;;;;;;;;;8.60;55.40;;;6.54;58.89;96158.88;5015698;28;19921;-69
2022/02/20 09:30:17;;;;;;;;;;;8.30;55.40;;;6.61;59.58;96153.84;5008363;28;19926;-68
2022/02/20 09:32:43;;;;;;;;;;;8.60;55.50;;;6.73;59.11;96158.56;4993960;28;19955;-70
2022/02/20 09:35:09;;;;;;;;;;;8.90;54.70;;;6.86;58.47;96157.25;4993770;28;20023;-69
2022/02/20 09:37:35;;;;;;;;;;;9.10;53.90;;;7.03;59.04;96148.44;4990588;28;19921;-69
2022/02/20 09:40:01;;;;;;;;;;;9.30;53.50;;;7.15;58.07;96141.03;4993619;28;19932;-68
2022/02/20 09:42:27;;;;;;;;;;;9.40;52.80;;;7.26;58.31;96133.66;4993248;28;19931;-67
2022/02/20 09:44:52;;;;;;;;;;;9.60;52.70;;;7.35;57.47;96132.66;5009382;28;19986;-67
2022/02/20 09:47:18;;;;;;;;;;;9.50;52.00;;;7.44;58.18;96135.25;4993959;28;20000;-67
2022/02/20 09:49:45;;;;;;;;;;;9.60;52.20;;;7.51;56.99;96142.28;4988213;28;19922;-66
2022/02/20 09:52:11;;;;;;;;;;;9.60;51.90;;;7.64;57.23;96131.25;4991565;28;19948;-67
2022/02/20 09:54:36;;;;;;;;;;;10.00;51.40;;;7.74;57.31;96131.88;4989873;28;20393;-68
2022/02/20 09:57:02;;;;;;;;;;;10.10;50.80;;;7.87;56.99;96139.16;4980829;28;19921;-68
2022/02/20 09:59:28;;;;;;;;;;;10.30;50.80;;;8.01;56.88;96135.00;5008547;28;20021;-69
2022/02/20 10:02:10;;;;;;;;;;;10.60;50.20;;;8.04;55.99;96126.81;4993119;28;19921;-68
2022/02/20 10:04:50;;;;;;;;;;;10.40;49.70;;;8.09;56.38;96129.72;4993593;28;19921;-68
2022/02/20 10:07:23;;;;;;;;;;;10.70;49.40;;;8.44;55.87;96134.47;5009536;28;20284;-69
2022/02/20 10:09:49;;;;;;;;;;;13.00;44.00;;;9.10;55.50;96119.81;5004154;28;19970;-68
2022/02/20 10:12:22;;;;;;;;;;;15.40;39.40;;;9.66;54.54;96116.72;4992987;28;19925;-68
2022/02/20 10:14:48;;;;;;;;;;;15.10;38.50;;;10.00;53.03;96129.28;4976899;28;19929;-69
2022/02/20 10:17:14;;;;;;;;;;;14.10;40.40;;;10.24;52.55;96113.22;4973788;28;20285;-68
2022/02/20 10:20:00;;;;;;;;;;;15.20;38.80;;;10.80;52.97;96102.00;4988441;28;19922;-69
2022/02/20 10:22:36;;;;;;;;;;;16.30;36.70;;;11.24;50.42;96099.06;5012959;28;19926;-69
2022/02/20 10:25:08;;;;;;;;;;;16.00;36.40;;;11.19;50.79;96099.66;5008693;28;20397;-68
2022/02/20 10:27:34;;;;;;;;;;;14.40;40.00;;;11.34;49.88;96094.28;5006539;28;19929;-69
2022/02/20 10:30:15;;;;;;;;;;;15.70;37.50;;;11.88;51.42;96089.09;5010846;28;19964;-66
2022/02/20 10:32:41;;;;;;;;;;;18.70;33.00;;;12.41;49.72;96081.34;4994214;28;20020;-66
2022/02/20 10:35:15;;;;;;;;;;;18.50;32.30;;;12.47;49.33;96080.56;5014333;28;20007;-67
2022/02/20 10:37:41;;;;;;;;;;;16.60;34.70;;;12.42;48.14;96076.88;5008565;28;19925;-67
2022/02/20 10:40:30;;;;;;;;;;;16.60;36.30;;;12.76;46.68;96089.91;4995663;28;20020;-66
2022/02/20 10:43:03;;;;;;;;;;;17.70;32.70;;;12.87;47.48;96070.81;5018175;28;19921;-67
2022/02/20 10:45:34;;;;;;;;;;;17.10;34.90;;;12.91;47.26;96076.50;4998460;28;19979;-67
2022/02/20 10:48:01;;;;;;;;;;;16.50;35.60;;;12.72;46.88;96057.03;5024394;28;20001;-67
2022/02/20 10:50:28;;;;;;;;;;;16.30;35.70;;;12.62;46.56;96051.31;4993463;28;19929;-66
2022/02/20 10:53:19;;;;;;;;;;;15.40;36.60;;;12.38;46.81;96044.81;5011138;28;19925;-67
2022/02/20 10:55:47;;;;;;;;;;;14.80;37.80;;;12.26;48.24;96052.50;5008707;28;20012;-66
2022/02/20 10:58:17;;;;;;;;;;;14.60;38.60;;;12.09;47.40;96047.81;5009736;28;19928;-67
2022/02/20 11:00:50;;;;;;;;;;;14.40;39.20;;;11.91;47.44;96033.34;5012253;28;19928;-67
2022/02/20 11:03:17;;;;;;;;;;;14.00;39.50;;;11.79;47.29;96034.97;5005202;28;20134;-67
2022/02/20 11:05:43;;;;;;;;;;;14.10;40.10;;;11.63;47.82;96030.81;4996640;28;19925;-67
2022/02/20 11:08:09;;;;;;;;;;;13.70;41.00;;;11.53;49.02;96063.78;4989404;28;20290;-67
2022/02/20 11:10:35;;;;;;;;;;;13.70;41.60;;;11.40;49.21;96040.84;4994751;28;19926;-71
2022/02/20 11:13:03;;;;;;;;;;;13.50;41.90;;;11.33;49.35;96037.38;5000859;28;20412;-71
2022/02/20 11:15:29;;;;;;;;;;;13.70;41.70;;;11.22;48.99;96033.44;5004002;28;20008;-70
2022/02/20 11:17:55;;;;;;;;;;;13.30;42.40;;;11.25;49.01;96037.50;5000230;28;19974;-67
2022/02/20 11:20:21;;;;;;;;;;;13.80;41.50;;;11.40;49.49;96027.66;4999348;28;19984;-68
2022/02/20 11:22:50;;;;;;;;;;;15.10;40.00;;;11.64;49.61;96021.91;4999422;28;20013;-69
2022/02/20 11:25:16;;;;;;;;;;;15.90;37.60;;;11.93;48.41;96035.78;5008162;28;19924;-71
2022/02/20 11:27:42;;;;;;;;;;;16.90;35.30;;;12.57;47.56;96022.91;4990385;28;19922;-71